createdAt,value
2019-02-04T00:01:55.389Z,2.40
2019-02-04T00:04:25.764Z,2.40
2019-02-04T00:06:55.929Z,2.40
2019-02-04T00:09:26.114Z,2.30
2019-02-04T00:11:56.775Z,2.40
2019-02-04T00:14:26.960Z,2.30
2019-02-04T00:16:57.295Z,2.30
2019-02-04T00:19:28.507Z,2.30
2019-02-04T00:21:58.794Z,2.40
2019-02-04T00:24:29.582Z,2.40
2019-02-04T00:26:59.855Z,2.40
2019-02-04T00:29:30.137Z,2.40
2019-02-04T00:32:00.368Z,2.40
2019-02-04T00:34:30.652Z,2.50
2019-02-04T00:37:00.822Z,2.50
2019-02-04T00:39:30.525Z,2.50
2019-02-04T00:42:00.789Z,2.50
2019-02-04T00:44:30.989Z,2.50
2019-02-04T00:47:02.193Z,2.60
2019-02-04T00:49:32.478Z,2.60
2019-02-04T00:52:02.842Z,2.50
2019-02-04T00:54:33.045Z,2.50
2019-02-04T00:57:03.282Z,2.50
2019-02-04T00:59:33.671Z,2.50
2019-02-04T01:02:04.419Z,2.50
2019-02-04T01:04:35.010Z,2.50
2019-02-04T01:07:05.779Z,2.50
2019-02-04T01:09:35.497Z,2.50
2019-02-04T01:12:06.641Z,2.50
2019-02-04T01:14:36.829Z,2.50
2019-02-04T01:17:07.090Z,2.50
2019-02-04T01:19:37.361Z,2.50
2019-02-04T01:22:07.994Z,2.40
2019-02-04T01:24:38.270Z,2.40
2019-02-04T01:27:08.533Z,2.40
2019-02-04T01:29:39.422Z,2.40
2019-02-04T01:32:09.156Z,2.40
2019-02-04T01:34:39.524Z,2.40
2019-02-04T01:37:18.997Z,2.30
2019-02-04T01:39:48.704Z,2.40
2019-02-04T01:42:19.488Z,2.30
2019-02-04T01:44:49.664Z,2.40
2019-02-04T01:47:19.875Z,2.40
2019-02-04T01:49:50.167Z,2.40
2019-02-04T01:52:20.546Z,2.40
2019-02-04T01:54:50.805Z,2.50
2019-02-04T01:57:21.116Z,2.50
2019-02-04T01:59:51.438Z,2.50
2019-02-04T02:02:21.574Z,2.40
2019-02-04T02:04:51.754Z,2.40
2019-02-04T02:07:22.097Z,2.50
2019-02-04T02:09:52.581Z,2.50
2019-02-04T02:12:22.898Z,2.50
2019-02-04T02:14:53.057Z,2.60
2019-02-04T02:17:26.582Z,2.60
2019-02-04T02:19:55.523Z,2.50
2019-02-04T02:22:26.037Z,2.60
2019-02-04T02:24:56.224Z,2.70
2019-02-04T02:27:26.506Z,2.60
2019-02-04T02:29:56.667Z,2.40
2019-02-04T02:32:26.961Z,2.40
2019-02-04T02:34:57.533Z,2.30
2019-02-04T02:37:27.813Z,2.20
2019-02-04T02:39:58.280Z,2.20
2019-02-04T02:42:28.461Z,2.20
2019-02-04T02:44:58.726Z,2.20
2019-02-04T02:47:38.071Z,2.40
2019-02-04T02:50:00.684Z,2.40
2019-02-04T02:52:30.889Z,2.30
2019-02-04T02:55:01.042Z,2.40
2019-02-04T02:57:31.325Z,2.50
2019-02-04T03:00:01.573Z,2.60
2019-02-04T03:02:31.962Z,2.70
2019-02-04T03:05:02.221Z,2.70
2019-02-04T03:07:32.429Z,2.70
2019-02-04T03:10:03.117Z,2.70
2019-02-04T03:12:33.301Z,2.80
2019-02-04T03:15:04.906Z,2.80
2019-02-04T03:17:35.193Z,2.80
2019-02-04T03:20:08.104Z,2.80
2019-02-04T03:22:38.376Z,2.80
2019-02-04T03:25:11.455Z,2.80
2019-02-04T03:27:42.212Z,2.80
2019-02-04T03:30:18.487Z,2.70
2019-02-04T03:32:48.682Z,2.60
2019-02-04T03:35:18.910Z,2.60
2019-02-04T03:37:52.222Z,2.60
2019-02-04T03:40:27.161Z,2.60
2019-02-04T03:42:57.430Z,2.50
2019-02-04T03:45:27.831Z,2.40
2019-02-04T03:48:07.188Z,2.30
2019-02-04T03:50:30.081Z,2.40
2019-02-04T03:53:00.300Z,2.30
2019-02-04T03:55:30.529Z,2.20
2019-02-04T03:58:00.736Z,2.10
2019-02-04T04:00:33.641Z,2.00
2019-02-04T04:03:04.581Z,1.90
2019-02-04T04:05:34.760Z,1.80
2019-02-04T04:08:05.736Z,1.80
2019-02-04T04:10:35.908Z,1.80
2019-02-04T04:13:06.198Z,1.90
2019-02-04T04:15:36.437Z,2.00
2019-02-04T04:18:15.623Z,2.10
2019-02-04T04:20:38.661Z,2.00
2019-02-04T04:23:08.279Z,2.00
2019-02-04T04:25:37.950Z,2.00
2019-02-04T04:28:07.776Z,2.10
2019-02-04T04:30:38.345Z,2.10
2019-02-04T04:33:08.178Z,2.10
2019-02-04T04:35:38.634Z,2.10
2019-02-04T04:38:08.849Z,2.00
2019-02-04T04:40:38.562Z,1.90
2019-02-04T04:43:08.272Z,1.90
2019-02-04T04:45:37.873Z,1.80
2019-02-04T04:48:07.496Z,1.80
2019-02-04T04:50:37.397Z,1.80
2019-02-04T04:53:07.602Z,1.80
2019-02-04T04:55:38.588Z,1.70
2019-02-04T04:58:08.522Z,1.60
2019-02-04T05:00:38.184Z,1.60
2019-02-04T05:03:08.382Z,1.60
2019-02-04T05:05:38.082Z,1.60
2019-02-04T05:08:07.700Z,1.60
2019-02-04T05:10:37.877Z,1.60
2019-02-04T05:13:07.601Z,1.60
2019-02-04T05:15:37.769Z,1.60
2019-02-04T05:18:07.394Z,1.60
2019-02-04T05:20:37.166Z,1.60
2019-02-04T05:23:07.377Z,1.50
2019-02-04T05:25:37.373Z,1.50
2019-02-04T05:28:07.580Z,1.40
2019-02-04T05:30:37.257Z,1.30
2019-02-04T05:33:06.932Z,1.40
2019-02-04T05:35:36.541Z,1.40
2019-02-04T05:38:06.311Z,1.30
2019-02-04T05:40:36.173Z,1.30
2019-02-04T05:43:05.810Z,1.20
2019-02-04T05:45:36.114Z,1.10
2019-02-04T05:48:05.759Z,1.10
2019-02-04T05:50:35.632Z,1.00
2019-02-04T05:53:05.912Z,0.80
2019-02-04T05:55:35.616Z,0.80
2019-02-04T05:58:06.094Z,0.70
2019-02-04T06:00:43.165Z,0.60
2019-02-04T06:03:12.941Z,0.50
2019-02-04T06:05:42.762Z,0.40
2019-02-04T06:08:12.427Z,0.50
2019-02-04T06:10:42.042Z,0.50
2019-02-04T06:13:11.646Z,0.50
2019-02-04T06:15:41.275Z,0.50
2019-02-04T06:18:10.968Z,0.40
2019-02-04T06:20:40.589Z,0.40
2019-02-04T06:23:10.190Z,0.30
2019-02-04T06:25:39.817Z,0.30
2019-02-04T06:28:09.525Z,0.30
2019-02-04T06:30:39.148Z,0.40
2019-02-04T06:33:08.751Z,0.40
2019-02-04T06:35:38.376Z,0.30
2019-02-04T06:38:08.287Z,0.10
2019-02-04T06:40:37.909Z,0.00
2019-02-04T06:43:07.594Z,-0.10
2019-02-04T06:45:37.434Z,-0.20
2019-02-04T06:48:07.518Z,-0.10
2019-02-04T06:50:37.207Z,-0.10
2019-02-04T06:53:06.915Z,-0.10
2019-02-04T06:55:36.638Z,-0.10
2019-02-04T06:58:07.450Z,-0.20
2019-02-04T07:00:37.154Z,-0.30
2019-02-04T07:03:06.941Z,-0.30
2019-02-04T07:05:43.558Z,-0.30
2019-02-04T07:08:08.243Z,-0.30
2019-02-04T07:10:37.967Z,-0.30
2019-02-04T07:13:07.662Z,-0.40
2019-02-04T07:15:37.692Z,-0.40
2019-02-04T07:18:07.302Z,-0.40
2019-02-04T07:20:38.035Z,-0.40
2019-02-04T07:23:07.702Z,-0.30
2019-02-04T07:25:37.894Z,-0.30
2019-02-04T07:28:07.605Z,-0.30
2019-02-04T07:30:37.400Z,-0.30
2019-02-04T07:33:07.009Z,-0.30
2019-02-04T07:35:36.704Z,-0.30
2019-02-04T07:38:06.828Z,-0.30
2019-02-04T07:40:37.870Z,-0.30
2019-02-04T07:43:07.541Z,-0.30
2019-02-04T07:45:37.832Z,-0.40
2019-02-04T07:48:07.519Z,-0.40
2019-02-04T07:50:37.225Z,-0.40
2019-02-04T07:53:06.902Z,-0.40
2019-02-04T07:55:36.563Z,-0.40
2019-02-04T07:58:06.149Z,-0.40
2019-02-04T08:00:35.854Z,-0.30
2019-02-04T08:03:05.667Z,-0.30
2019-02-04T08:05:35.349Z,-0.30
2019-02-04T08:08:05.360Z,-0.20
2019-02-04T08:10:34.969Z,-0.20
2019-02-04T08:13:05.333Z,-0.20
2019-02-04T08:15:37.158Z,-0.20
2019-02-04T08:18:07.420Z,-0.20
2019-02-04T08:20:37.098Z,-0.20
2019-02-04T08:23:06.731Z,-0.10
2019-02-04T08:25:36.406Z,-0.10
2019-02-04T08:28:06.434Z,-0.10
2019-02-04T08:30:38.594Z,-0.10
2019-02-04T08:33:08.385Z,-0.10
2019-02-04T08:35:38.054Z,0.00
2019-02-04T08:38:07.814Z,0.10
2019-02-04T08:40:37.713Z,0.10
2019-02-04T08:43:07.520Z,-0.10
2019-02-04T08:45:37.265Z,-0.20
2019-02-04T08:48:07.135Z,-0.10
2019-02-04T08:50:38.724Z,0.00
2019-02-04T08:53:09.385Z,0.00
2019-02-04T08:55:39.826Z,0.10
2019-02-04T08:58:09.697Z,0.10
2019-02-04T09:00:39.403Z,0.20
2019-02-04T09:03:09.322Z,0.30
2019-02-04T09:05:38.984Z,0.30
2019-02-04T09:08:08.601Z,0.30
2019-02-04T09:10:38.564Z,0.40
2019-02-04T09:13:08.193Z,0.40
2019-02-04T09:15:37.873Z,0.40
2019-02-04T09:18:07.741Z,0.50
2019-02-04T09:20:37.340Z,0.60
2019-02-04T09:23:06.962Z,0.70
2019-02-04T09:25:36.899Z,0.70
2019-02-04T09:28:06.510Z,0.80
2019-02-04T09:30:36.382Z,0.80
2019-02-04T09:33:06.364Z,0.90
2019-02-04T09:35:36.204Z,1.00
2019-02-04T09:38:06.118Z,1.00
2019-02-04T09:40:38.820Z,1.00
2019-02-04T09:43:08.986Z,1.00
2019-02-04T09:45:39.032Z,1.00
2019-02-04T09:48:14.737Z,1.00
2019-02-04T09:50:47.261Z,1.00
2019-02-04T09:53:17.052Z,1.00
2019-02-04T09:55:47.961Z,1.10
2019-02-04T09:58:17.587Z,1.20
2019-02-04T10:00:47.353Z,1.30
2019-02-04T10:03:16.949Z,1.40
2019-02-04T10:05:47.239Z,1.50
2019-02-04T10:08:16.825Z,1.50
2019-02-04T10:10:46.573Z,1.60
2019-02-04T10:13:16.236Z,1.60
2019-02-04T10:15:46.258Z,1.60
2019-02-04T10:18:16.300Z,1.70
2019-02-04T10:20:46.543Z,1.70
2019-02-04T10:23:16.194Z,1.80
2019-02-04T10:25:45.830Z,1.90
2019-02-04T10:28:16.302Z,1.90
2019-02-04T10:30:46.612Z,1.90
2019-02-04T10:33:16.760Z,2.00
2019-02-04T10:35:46.392Z,2.00
2019-02-04T10:38:16.851Z,2.00
2019-02-04T10:40:48.116Z,2.10
2019-02-04T10:43:18.353Z,2.10
2019-02-04T10:45:47.980Z,2.10
2019-02-04T10:48:17.670Z,2.20
2019-02-04T10:50:47.400Z,2.20
2019-02-04T10:53:17.673Z,2.20
2019-02-04T10:55:47.945Z,2.30
2019-02-04T10:58:18.345Z,2.30
2019-02-04T11:00:48.457Z,2.30
2019-02-04T11:03:19.949Z,2.30
2019-02-04T11:05:49.365Z,2.30
2019-02-04T11:08:18.973Z,2.30
2019-02-04T11:10:48.598Z,2.30
2019-02-04T11:13:18.338Z,2.40
2019-02-04T11:15:49.282Z,2.50
2019-02-04T11:18:19.268Z,2.50
2019-02-04T11:20:57.660Z,2.50
2019-02-04T11:23:20.788Z,2.50
2019-02-04T11:25:51.333Z,2.50
2019-02-04T11:28:21.710Z,2.50
2019-02-04T11:30:57.333Z,2.60
2019-02-04T11:33:27.031Z,2.60
2019-02-04T11:35:57.278Z,2.60
2019-02-04T11:38:27.075Z,2.60
2019-02-04T11:40:57.058Z,2.60
2019-02-04T11:43:26.868Z,2.60
2019-02-04T11:45:57.328Z,2.70
2019-02-04T11:48:27.703Z,2.60
2019-02-04T11:51:08.907Z,2.70
2019-02-04T11:53:33.095Z,2.60
2019-02-04T11:56:01.596Z,2.70
2019-02-04T11:58:31.830Z,2.70
2019-02-04T12:01:01.683Z,2.70
2019-02-04T12:03:31.927Z,2.80
2019-02-04T12:06:02.273Z,2.80
2019-02-04T12:08:35.477Z,2.80
2019-02-04T12:11:06.769Z,2.80
2019-02-04T12:13:37.052Z,2.90
2019-02-04T12:16:07.242Z,2.90
2019-02-04T12:18:38.469Z,2.90
2019-02-04T12:21:08.648Z,3.00
2019-02-04T12:23:38.875Z,3.00
2019-02-04T12:26:09.160Z,3.00
2019-02-04T12:28:39.393Z,3.00
2019-02-04T12:31:10.977Z,3.00
2019-02-04T12:33:41.547Z,3.10
2019-02-04T12:36:11.789Z,3.00
2019-02-04T12:38:42.044Z,3.00
2019-02-04T12:41:13.001Z,3.10
2019-02-04T12:43:43.269Z,3.10
2019-02-04T12:46:13.580Z,3.10
2019-02-04T12:48:43.744Z,3.10
2019-02-04T12:51:14.109Z,3.10
2019-02-04T12:53:43.726Z,3.20
2019-02-04T12:56:15.210Z,3.20
2019-02-04T12:58:55.319Z,3.20
2019-02-04T13:01:17.344Z,3.20
2019-02-04T13:03:47.608Z,3.20
2019-02-04T13:06:17.789Z,3.20
2019-02-04T13:08:48.260Z,3.20
2019-02-04T13:11:18.606Z,3.20
2019-02-04T13:13:49.272Z,3.20
2019-02-04T13:16:19.525Z,3.20
2019-02-04T13:18:49.793Z,3.30
2019-02-04T13:21:20.357Z,3.30
2019-02-04T13:23:50.599Z,3.20
2019-02-04T13:26:20.769Z,3.20
2019-02-04T13:28:51.015Z,3.20
2019-02-04T13:31:21.605Z,3.30
2019-02-04T13:33:51.790Z,3.30
2019-02-04T13:36:22.084Z,3.30
2019-02-04T13:38:52.257Z,3.30
2019-02-04T13:41:22.915Z,3.20
2019-02-04T13:43:53.078Z,3.20
2019-02-04T13:46:23.339Z,3.20
2019-02-04T13:48:53.505Z,3.30
2019-02-04T13:51:23.718Z,3.30
2019-02-04T13:53:57.172Z,3.30
2019-02-04T13:56:26.749Z,3.30
2019-02-04T13:58:56.948Z,3.30
2019-02-04T14:01:27.140Z,3.30
2019-02-04T14:03:57.309Z,3.20
2019-02-04T14:06:27.497Z,3.30
2019-02-04T14:08:57.689Z,3.20
2019-02-04T14:11:27.958Z,3.20
2019-02-04T14:13:58.305Z,3.30
2019-02-04T14:16:28.497Z,3.30
2019-02-04T14:18:59.552Z,3.30
2019-02-04T14:21:29.847Z,3.30
2019-02-04T14:24:00.084Z,3.30
2019-02-04T14:26:30.285Z,3.30
2019-02-04T14:29:00.449Z,3.30
2019-02-04T14:31:30.713Z,3.30
2019-02-04T14:34:01.281Z,3.30
2019-02-04T14:36:31.642Z,3.30
2019-02-04T14:39:01.881Z,3.20
2019-02-04T14:41:32.181Z,3.30
2019-02-04T14:44:02.722Z,3.30
2019-02-04T14:46:39.386Z,3.30
2019-02-04T14:49:36.973Z,3.30
2019-02-04T14:52:21.948Z,3.20
2019-02-04T14:55:11.333Z,3.20
2019-02-04T14:57:47.318Z,3.20
2019-02-04T15:00:48.234Z,3.20
2019-02-04T15:03:51.744Z,3.10
2019-02-04T15:06:30.850Z,3.20
2019-02-04T15:09:31.531Z,3.20
2019-02-04T15:12:26.585Z,3.20
2019-02-04T15:15:14.760Z,3.10
2019-02-04T15:17:58.909Z,3.10
2019-02-04T15:20:48.996Z,3.10
2019-02-04T15:23:24.999Z,3.10
2019-02-04T15:26:04.034Z,3.00
2019-02-04T15:28:37.307Z,3.00
2019-02-04T15:31:13.397Z,3.00
2019-02-04T15:33:52.545Z,2.90
2019-02-04T15:36:25.888Z,2.90
2019-02-04T15:39:10.974Z,2.90
2019-02-04T15:41:59.298Z,2.90
2019-02-04T15:44:36.256Z,3.00
2019-02-04T15:47:09.502Z,2.90
2019-02-04T15:49:59.289Z,2.90
2019-02-04T15:52:29.461Z,2.80
2019-02-04T15:54:59.724Z,2.70
2019-02-04T15:57:30.017Z,2.70
2019-02-04T16:00:00.185Z,2.70
2019-02-04T16:02:30.368Z,2.70
2019-02-04T16:05:00.032Z,2.70
2019-02-04T16:07:30.284Z,2.60
2019-02-04T16:10:00.755Z,2.60
2019-02-04T16:12:30.929Z,2.60
2019-02-04T16:15:01.477Z,2.60
2019-02-04T16:17:31.670Z,2.50
2019-02-04T16:20:01.838Z,2.60
2019-02-04T16:22:32.029Z,2.50
2019-02-04T16:25:02.189Z,2.50
2019-02-04T16:27:31.816Z,2.40
2019-02-04T16:30:02.023Z,2.50
2019-02-04T16:32:32.200Z,2.40
2019-02-04T16:35:02.425Z,2.40
2019-02-04T16:37:33.019Z,2.40
2019-02-04T16:40:03.359Z,2.40
2019-02-04T16:42:33.521Z,2.50
2019-02-04T16:45:04.384Z,2.40
2019-02-04T16:47:34.573Z,2.20
2019-02-04T16:50:07.286Z,2.20
2019-02-04T16:52:36.880Z,2.20
2019-02-04T16:55:08.704Z,2.20
2019-02-04T16:57:38.964Z,2.20
2019-02-04T17:00:14.981Z,2.10
2019-02-04T17:02:45.511Z,2.00
2019-02-04T17:05:16.432Z,2.00
2019-02-04T17:07:46.678Z,1.90
2019-02-04T17:10:21.995Z,1.80
2019-02-04T17:12:52.512Z,1.80
2019-02-04T17:15:25.570Z,1.80
2019-02-04T17:17:54.575Z,1.80
2019-02-04T17:20:30.312Z,1.70
2019-02-04T17:23:00.509Z,1.70
2019-02-04T17:25:30.852Z,1.70
2019-02-04T17:28:01.092Z,1.60
2019-02-04T17:30:31.520Z,1.60
2019-02-04T17:33:01.687Z,1.50
2019-02-04T17:35:31.309Z,1.50
2019-02-04T17:38:03.982Z,1.60
2019-02-04T17:40:32.244Z,1.70
2019-02-04T17:43:02.277Z,1.60
2019-02-04T17:45:32.402Z,1.50
2019-02-04T17:48:02.196Z,1.50
2019-02-04T17:50:31.966Z,1.50
2019-02-04T17:53:01.607Z,1.50
2019-02-04T17:55:31.183Z,1.40
2019-02-04T17:58:01.391Z,1.30
2019-02-04T18:00:32.749Z,1.20
2019-02-04T18:03:02.367Z,1.20
2019-02-04T18:05:32.023Z,1.20
2019-02-04T18:08:01.904Z,1.20
2019-02-04T18:10:32.045Z,1.10
2019-02-04T18:13:02.273Z,1.20
2019-02-04T18:15:33.484Z,1.30
2019-02-04T18:18:03.157Z,1.20
2019-02-04T18:20:32.925Z,1.00
2019-02-04T18:23:02.799Z,1.00
2019-02-04T18:25:32.688Z,0.90
2019-02-04T18:28:02.360Z,0.90
2019-02-04T18:30:32.391Z,0.80
2019-02-04T18:33:01.996Z,0.80
2019-02-04T18:35:31.994Z,0.70
2019-02-04T18:38:01.672Z,0.60
2019-02-04T18:40:31.596Z,0.60
2019-02-04T18:43:01.364Z,0.60
2019-02-04T18:45:35.206Z,0.50
2019-02-04T18:48:06.149Z,0.50
2019-02-04T18:50:36.070Z,0.60
2019-02-04T18:53:05.804Z,0.50
2019-02-04T18:55:35.496Z,0.50
2019-02-04T18:58:05.423Z,0.40
2019-02-04T19:00:35.186Z,0.30
2019-02-04T19:03:16.957Z,0.30
2019-02-04T19:05:37.544Z,0.20
2019-02-04T19:08:07.505Z,0.20
2019-02-04T19:10:37.310Z,0.20
2019-02-04T19:13:07.017Z,0.20
2019-02-04T19:15:37.424Z,0.20
2019-02-04T19:18:12.897Z,0.30
2019-02-04T19:20:42.676Z,0.30
2019-02-04T19:23:12.484Z,0.40
2019-02-04T19:25:42.546Z,0.40
2019-02-04T19:28:12.284Z,0.50
2019-02-04T19:30:51.871Z,0.50
2019-02-04T19:33:23.273Z,0.40
2019-02-04T19:35:54.597Z,0.40
2019-02-04T19:38:26.020Z,0.50
2019-02-04T19:40:57.978Z,0.50
2019-02-04T19:43:29.835Z,0.50
2019-02-04T19:46:09.401Z,0.50
2019-02-04T19:48:39.293Z,0.60
2019-02-04T19:51:09.637Z,0.50
2019-02-04T19:53:40.160Z,0.60
2019-02-04T19:56:10.209Z,0.60
2019-02-04T19:58:41.643Z,0.70
2019-02-04T20:01:14.457Z,0.70
2019-02-04T20:03:44.388Z,0.60
2019-02-04T20:06:15.359Z,0.50
2019-02-04T20:08:45.780Z,0.50
2019-02-04T20:11:17.864Z,0.50
2019-02-04T20:13:48.180Z,0.50
2019-02-04T20:16:18.585Z,0.50
2019-02-04T20:18:48.381Z,0.50
2019-02-04T20:21:19.618Z,0.60
2019-02-04T20:23:49.564Z,0.60
2019-02-04T20:26:19.777Z,0.70
2019-02-04T20:28:50.342Z,0.70
2019-02-04T20:31:20.941Z,0.70
2019-02-04T20:33:51.044Z,0.80
2019-02-04T20:36:22.416Z,0.70
2019-02-04T20:38:52.284Z,0.70
2019-02-04T20:41:22.653Z,0.70
2019-02-04T20:43:52.495Z,0.70
2019-02-04T20:49:12.955Z,0.80
2019-02-04T20:51:42.830Z,0.70
2019-02-04T20:54:19.722Z,0.70
2019-02-04T20:56:45.041Z,0.70
2019-02-04T20:59:15.486Z,0.60
2019-02-04T21:01:45.090Z,0.60
2019-02-04T21:04:14.830Z,0.70
2019-02-04T21:06:55.398Z,0.70
2019-02-04T21:09:15.681Z,0.70
2019-02-04T21:11:45.809Z,0.70
2019-02-04T21:14:15.429Z,0.80
2019-02-04T21:16:45.042Z,0.80
2019-02-04T21:19:14.877Z,0.90
2019-02-04T21:21:44.517Z,0.90
2019-02-04T21:24:14.480Z,1.00
2019-02-04T21:26:44.460Z,1.10
2019-02-04T21:29:14.192Z,1.00
2019-02-04T21:31:44.002Z,0.90
2019-02-04T21:34:13.722Z,1.00
2019-02-04T21:36:43.326Z,1.00
2019-02-04T21:39:13.526Z,0.90
2019-02-04T21:41:43.337Z,0.80
2019-02-04T21:44:13.057Z,0.80
2019-02-04T21:46:42.681Z,0.90
2019-02-04T21:49:12.317Z,0.80
2019-02-04T21:51:41.972Z,0.80
2019-02-04T21:54:13.193Z,0.80
2019-02-04T21:56:43.768Z,0.80
2019-02-04T21:59:13.492Z,0.80
2019-02-04T22:01:43.101Z,0.80
2019-02-04T22:04:12.720Z,0.80
2019-02-04T22:06:42.341Z,0.90
2019-02-04T22:09:12.227Z,0.80
2019-02-04T22:11:41.841Z,0.80
2019-02-04T22:14:11.762Z,0.90
2019-02-04T22:16:42.560Z,0.90
2019-02-04T22:19:12.498Z,0.90
2019-02-04T22:21:42.106Z,1.00
2019-02-04T22:24:13.200Z,1.10
2019-02-04T22:26:42.908Z,1.10
2019-02-04T22:29:13.043Z,1.00
2019-02-04T22:31:43.449Z,1.00
2019-02-04T22:34:25.850Z,1.10
2019-02-04T22:36:55.554Z,1.10
2019-02-04T22:39:44.724Z,1.20
2019-02-04T22:42:26.128Z,1.20
2019-02-04T22:44:56.226Z,1.10
2019-02-04T22:47:45.303Z,1.20
2019-02-04T22:50:26.922Z,1.20
2019-02-04T22:53:08.865Z,1.30
2019-02-04T22:55:51.109Z,1.30
2019-02-04T22:58:33.158Z,1.30
2019-02-04T23:01:15.313Z,1.40
2019-02-04T23:03:56.953Z,1.30
2019-02-04T23:06:38.507Z,1.20
2019-02-04T23:09:08.534Z,1.10
2019-02-04T23:11:38.321Z,1.10
2019-02-04T23:14:08.764Z,1.10
2019-02-04T23:16:38.394Z,1.10
2019-02-04T23:19:08.241Z,1.10
2019-02-04T23:21:45.193Z,1.10
2019-02-04T23:24:14.810Z,1.00
2019-02-04T23:26:56.894Z,1.00
2019-02-04T23:29:39.154Z,0.90
2019-02-04T23:32:22.027Z,0.80
2019-02-04T23:35:03.946Z,0.70
2019-02-04T23:37:45.942Z,0.70
2019-02-04T23:40:27.915Z,0.70
2019-02-04T23:43:09.846Z,0.70
2019-02-04T23:45:52.096Z,0.90
2019-02-04T23:48:34.933Z,1.10
2019-02-04T23:51:16.805Z,1.10
2019-02-04T23:53:58.925Z,1.10
2019-02-04T23:56:41.162Z,1.10
2019-02-04T23:59:23.062Z,1.10
